createdAt,value
2017-09-25T00:00:45.885Z,99.90
2017-09-25T00:03:13.398Z,99.90
2017-09-25T00:05:40.969Z,99.90
2017-09-25T00:08:08.483Z,99.90
2017-09-25T00:10:36.017Z,99.90
2017-09-25T00:13:03.529Z,99.90
2017-09-25T00:15:31.061Z,99.90
2017-09-25T00:17:59.351Z,99.90
2017-09-25T00:20:27.654Z,99.90
2017-09-25T00:22:55.278Z,99.90
2017-09-25T00:25:22.815Z,99.90
2017-09-25T00:27:50.340Z,99.90
2017-09-25T00:30:17.882Z,99.90
2017-09-25T00:32:45.398Z,99.90
2017-09-25T00:35:12.917Z,99.90
2017-09-25T00:37:40.462Z,99.90
2017-09-25T00:40:07.981Z,99.90
2017-09-25T00:42:35.518Z,99.90
2017-09-25T00:45:03.811Z,99.90
2017-09-25T00:47:31.351Z,99.90
2017-09-25T00:49:58.870Z,99.90
2017-09-25T00:52:38.354Z,99.90
2017-09-25T00:58:02.343Z,99.90
2017-09-25T01:00:41.771Z,99.90
2017-09-25T01:03:21.215Z,99.90
2017-09-25T01:06:00.635Z,99.90
2017-09-25T01:08:28.154Z,99.90
2017-09-25T01:10:55.678Z,99.90
2017-09-25T01:13:23.216Z,99.90
2017-09-25T01:15:50.729Z,99.90
2017-09-25T01:18:18.266Z,99.90
2017-09-25T01:20:45.786Z,99.90
2017-09-25T01:23:13.322Z,99.90
2017-09-25T01:25:40.849Z,99.90
2017-09-25T01:28:08.396Z,99.90
2017-09-25T01:30:35.919Z,99.90
2017-09-25T01:33:03.461Z,99.90
2017-09-25T01:35:30.980Z,99.90
2017-09-25T01:37:58.531Z,99.90
2017-09-25T01:40:26.054Z,99.90
2017-09-25T01:42:54.354Z,99.90
2017-09-25T01:45:21.873Z,99.90
2017-09-25T01:47:49.456Z,99.90
2017-09-25T01:50:17.740Z,99.90
2017-09-25T01:52:45.275Z,99.90
2017-09-25T01:55:13.561Z,99.90
2017-09-25T01:57:41.096Z,99.90
2017-09-25T02:00:08.615Z,99.90
2017-09-25T02:02:36.154Z,99.90
2017-09-25T02:05:03.674Z,99.90
2017-09-25T02:07:31.206Z,99.90
2017-09-25T02:09:59.490Z,99.90
2017-09-25T02:12:27.031Z,99.90
2017-09-25T02:14:54.555Z,99.90
2017-09-25T02:17:22.094Z,99.90
2017-09-25T02:19:49.614Z,99.90
2017-09-25T02:22:17.150Z,99.90
2017-09-25T02:24:44.671Z,99.90
2017-09-25T02:27:12.979Z,99.90
2017-09-25T02:29:40.499Z,99.90
2017-09-25T02:32:08.038Z,99.90
2017-09-25T02:34:35.558Z,99.90
2017-09-25T02:37:03.098Z,99.90
2017-09-25T02:39:31.390Z,99.90
2017-09-25T02:41:58.931Z,99.90
2017-09-25T02:44:26.450Z,99.90
2017-09-25T02:46:54.762Z,99.90
2017-09-25T02:49:22.289Z,99.90
2017-09-25T02:51:50.575Z,99.90
2017-09-25T02:54:18.116Z,99.90
2017-09-25T02:56:45.643Z,99.90
2017-09-25T02:59:13.184Z,99.90
2017-09-25T03:01:40.711Z,99.90
2017-09-25T03:04:09.015Z,99.90
2017-09-25T03:06:36.540Z,99.90
2017-09-25T03:09:04.082Z,99.90
2017-09-25T03:11:31.608Z,99.90
2017-09-25T03:13:59.147Z,99.90
2017-09-25T03:16:27.430Z,99.90
2017-09-25T03:18:55.739Z,99.90
2017-09-25T03:21:23.258Z,99.90
2017-09-25T03:23:50.794Z,99.90
2017-09-25T03:26:18.311Z,99.90
2017-09-25T03:28:46.609Z,99.90
2017-09-25T03:31:14.132Z,99.90
2017-09-25T03:33:41.670Z,99.90
2017-09-25T03:36:09.186Z,99.90
2017-09-25T03:38:36.725Z,99.90
2017-09-25T03:41:04.309Z,99.90
2017-09-25T03:43:31.847Z,99.90
2017-09-25T03:45:59.376Z,99.90
2017-09-25T03:48:27.678Z,99.90
2017-09-25T03:50:55.196Z,99.90
2017-09-25T03:53:22.739Z,99.90
2017-09-25T03:55:50.255Z,99.90
2017-09-25T03:58:17.795Z,99.90
2017-09-25T04:00:46.077Z,99.90
2017-09-25T04:03:14.383Z,99.90
2017-09-25T04:05:41.901Z,99.90
2017-09-25T04:08:09.438Z,99.90
2017-09-25T04:10:36.961Z,99.90
2017-09-25T04:13:05.270Z,99.90
2017-09-25T04:15:32.797Z,99.90
2017-09-25T04:18:00.346Z,99.90
2017-09-25T04:20:28.633Z,99.90
2017-09-25T04:22:56.167Z,99.90
2017-09-25T04:25:23.689Z,99.90
2017-09-25T04:27:51.236Z,99.90
2017-09-25T04:30:18.763Z,99.90
2017-09-25T04:32:46.301Z,99.90
2017-09-25T04:35:14.586Z,99.90
2017-09-25T04:37:42.892Z,99.90
2017-09-25T04:40:10.417Z,99.90
2017-09-25T04:42:37.956Z,99.90
2017-09-25T04:45:05.486Z,99.90
2017-09-25T04:47:33.030Z,99.90
2017-09-25T04:50:01.359Z,99.90
2017-09-25T04:52:28.920Z,99.90
2017-09-25T04:54:56.438Z,99.90
2017-09-25T04:57:23.994Z,99.90
2017-09-25T04:59:51.503Z,99.90
2017-09-25T05:02:19.031Z,99.90
2017-09-25T05:04:46.578Z,99.90
2017-09-25T05:07:14.098Z,99.90
2017-09-25T05:09:41.954Z,99.90
2017-09-25T05:12:09.476Z,99.90
2017-09-25T05:14:37.021Z,99.90
2017-09-25T05:17:04.543Z,99.90
2017-09-25T05:19:32.078Z,99.90
2017-09-25T05:21:59.598Z,99.90
2017-09-25T05:24:27.133Z,99.90
2017-09-25T05:26:54.657Z,99.90
2017-09-25T05:29:22.202Z,99.90
2017-09-25T05:31:49.716Z,99.90
2017-09-25T05:34:17.264Z,99.90
2017-09-25T05:36:44.790Z,99.90
2017-09-25T05:39:13.096Z,99.90
2017-09-25T05:41:41.374Z,99.90
2017-09-25T05:44:08.909Z,99.90
2017-09-25T05:46:36.426Z,99.90
2017-09-25T05:49:03.966Z,99.90
2017-09-25T05:51:32.254Z,99.90
2017-09-25T05:54:00.558Z,99.90
2017-09-25T05:56:28.075Z,99.90
2017-09-25T05:58:55.611Z,99.90
2017-09-25T06:01:23.130Z,99.90
2017-09-25T06:03:51.435Z,99.90
2017-09-25T06:06:18.963Z,99.90
2017-09-25T06:08:46.497Z,99.90
2017-09-25T06:11:14.014Z,99.90
2017-09-25T06:13:41.546Z,99.90
2017-09-25T06:16:09.072Z,99.90
2017-09-25T06:18:37.387Z,99.90
2017-09-25T06:21:05.679Z,99.90
2017-09-25T06:23:33.222Z,99.90
2017-09-25T06:26:00.750Z,99.90
2017-09-25T06:28:28.294Z,99.90
2017-09-25T06:30:55.819Z,99.90
2017-09-25T06:33:23.362Z,99.90
2017-09-25T06:35:50.887Z,99.90
2017-09-25T06:38:18.440Z,99.90
2017-09-25T06:40:45.967Z,99.90
2017-09-25T06:43:13.513Z,99.90
2017-09-25T06:45:41.034Z,99.90
2017-09-25T06:48:09.343Z,99.90
2017-09-25T06:50:36.871Z,99.90
2017-09-25T06:53:04.416Z,99.90
2017-09-25T06:55:32.707Z,99.90
2017-09-25T06:58:00.249Z,99.90
2017-09-25T07:00:27.778Z,99.90
2017-09-25T07:02:55.303Z,99.90
2017-09-25T07:05:22.846Z,99.90
2017-09-25T07:07:51.138Z,99.90
2017-09-25T07:10:19.444Z,99.90
2017-09-25T07:12:46.972Z,99.90
2017-09-25T07:15:15.283Z,99.90
2017-09-25T07:17:42.801Z,99.90
2017-09-25T07:20:10.339Z,99.90
2017-09-25T07:22:37.867Z,99.90
2017-09-25T07:25:05.426Z,99.90
2017-09-25T07:27:32.951Z,99.90
2017-09-25T07:30:01.261Z,99.90
2017-09-25T07:32:28.789Z,99.90
2017-09-25T07:34:56.331Z,99.90
2017-09-25T07:37:24.620Z,99.90
2017-09-25T07:39:52.167Z,99.90
2017-09-25T07:42:19.699Z,99.90
2017-09-25T07:44:47.248Z,99.90
2017-09-25T07:47:14.771Z,99.90
2017-09-25T07:49:42.310Z,99.90
2017-09-25T07:52:10.608Z,99.90
2017-09-25T07:54:38.149Z,99.90
2017-09-25T07:57:05.670Z,99.90
2017-09-25T07:59:33.218Z,99.90
2017-09-25T08:02:01.518Z,99.90
2017-09-25T08:04:29.060Z,99.90
2017-09-25T08:06:56.587Z,99.90
2017-09-25T08:09:24.131Z,99.90
2017-09-25T08:11:51.661Z,99.90
2017-09-25T08:14:19.207Z,99.90
2017-09-25T08:16:46.734Z,99.90
2017-09-25T08:19:14.275Z,99.90
2017-09-25T08:21:41.798Z,99.90
2017-09-25T08:24:09.348Z,99.90
2017-09-25T08:26:36.874Z,99.90
2017-09-25T08:29:04.416Z,99.90
2017-09-25T08:31:32.718Z,99.90
2017-09-25T08:34:00.258Z,99.90
2017-09-25T08:36:27.775Z,99.90
2017-09-25T08:38:55.314Z,99.90
2017-09-25T08:41:22.840Z,99.90
2017-09-25T08:43:50.403Z,99.90
2017-09-25T08:46:17.932Z,99.90
2017-09-25T08:48:46.237Z,99.90
2017-09-25T08:51:13.764Z,99.90
2017-09-25T08:53:41.306Z,99.90
2017-09-25T08:56:08.834Z,99.90
2017-09-25T08:58:36.384Z,99.90
2017-09-25T09:01:03.916Z,99.90
2017-09-25T09:03:31.480Z,99.90
2017-09-25T09:05:59.771Z,99.90
2017-09-25T09:08:39.139Z,99.90
2017-09-25T09:11:06.666Z,99.90
2017-09-25T09:13:34.191Z,99.90
2017-09-25T09:16:01.734Z,99.90
2017-09-25T09:18:29.258Z,99.90
2017-09-25T09:20:56.811Z,99.90
2017-09-25T09:23:24.334Z,99.90
2017-09-25T09:25:51.880Z,99.90
2017-09-25T09:28:20.188Z,99.90
2017-09-25T09:30:47.736Z,99.90
2017-09-25T09:33:15.263Z,99.90
2017-09-25T09:35:42.811Z,99.90
2017-09-25T09:38:11.106Z,99.90
2017-09-25T09:40:38.646Z,99.90
2017-09-25T09:43:06.168Z,99.90
2017-09-25T09:45:33.723Z,99.90
2017-09-25T09:48:01.260Z,99.90
2017-09-25T09:50:29.579Z,97.90
2017-09-25T09:52:57.107Z,97.80
2017-09-25T09:55:24.718Z,97.40
2017-09-25T09:57:52.242Z,98.20
2017-09-25T10:00:20.554Z,98.10
2017-09-25T10:02:48.079Z,98.00
2017-09-25T10:05:15.619Z,97.60
2017-09-25T10:07:43.918Z,97.10
2017-09-25T10:10:11.457Z,97.00
2017-09-25T10:12:38.977Z,98.30
2017-09-25T10:15:06.518Z,97.50
2017-09-25T10:17:34.046Z,98.60
2017-09-25T10:20:01.596Z,98.60
2017-09-25T10:22:29.128Z,99.10
2017-09-25T10:24:56.678Z,99.00
2017-09-25T10:27:24.202Z,98.50
2017-09-25T10:29:51.754Z,97.60
2017-09-25T10:32:19.284Z,97.30
2017-09-25T10:34:46.830Z,97.30
2017-09-25T10:37:15.128Z,97.30
2017-09-25T10:39:42.678Z,97.30
2017-09-25T10:42:10.975Z,97.90
2017-09-25T10:44:39.286Z,96.60
2017-09-25T10:47:07.577Z,96.80
2017-09-25T10:49:35.124Z,96.80
2017-09-25T10:52:02.842Z,97.70
2017-09-25T10:54:31.152Z,98.40
2017-09-25T10:56:58.670Z,98.40
2017-09-25T10:59:26.983Z,96.50
2017-09-25T11:01:55.272Z,97.10
2017-09-25T11:04:22.827Z,97.10
2017-09-25T11:06:51.119Z,96.60
2017-09-25T11:09:18.663Z,96.20
2017-09-25T11:11:46.949Z,96.10
2017-09-25T11:14:15.260Z,95.70
2017-09-25T11:16:42.805Z,95.70
2017-09-25T11:19:10.326Z,96.20
2017-09-25T11:21:37.870Z,95.40
2017-09-25T11:24:05.399Z,95.70
2017-09-25T11:26:33.703Z,95.50
2017-09-25T11:29:01.996Z,95.90
2017-09-25T11:31:29.554Z,95.80
2017-09-25T11:33:57.841Z,96.10
2017-09-25T11:36:25.397Z,96.10
2017-09-25T11:38:52.923Z,95.80
2017-09-25T11:41:21.236Z,94.30
2017-09-25T11:43:48.763Z,94.30
2017-09-25T11:46:16.311Z,93.60
2017-09-25T11:48:44.599Z,92.50
2017-09-25T11:51:12.157Z,92.50
2017-09-25T11:53:39.719Z,93.50
2017-09-25T11:56:07.243Z,93.80
2017-09-25T11:58:34.807Z,93.60
2017-09-25T12:01:02.341Z,92.10
2017-09-25T12:03:29.861Z,93.60
2017-09-25T12:05:57.401Z,93.60
2017-09-25T12:08:24.926Z,94.40
2017-09-25T12:10:52.476Z,93.30
2017-09-25T12:13:19.994Z,94.00
2017-09-25T12:15:47.541Z,94.70
2017-09-25T12:18:15.062Z,94.60
2017-09-25T12:20:42.606Z,94.30
2017-09-25T12:23:10.131Z,93.00
2017-09-25T12:25:38.442Z,94.00
2017-09-25T12:28:05.966Z,94.00
2017-09-25T12:30:33.517Z,93.80
2017-09-25T12:33:01.042Z,93.20
2017-09-25T12:35:29.354Z,93.60
2017-09-25T12:37:56.889Z,93.60
2017-09-25T12:40:24.431Z,92.90
2017-09-25T12:42:51.951Z,93.00
2017-09-25T12:45:20.253Z,91.60
2017-09-25T12:47:47.768Z,91.60
2017-09-25T12:50:16.075Z,92.40
2017-09-25T12:52:44.363Z,92.80
2017-09-25T12:55:11.899Z,92.80
2017-09-25T12:57:39.421Z,93.10
2017-09-25T13:00:06.975Z,93.20
2017-09-25T13:02:35.268Z,93.50
2017-09-25T13:05:02.810Z,93.40
2017-09-25T13:07:30.335Z,93.40
2017-09-25T13:09:58.643Z,93.70
2017-09-25T13:12:26.166Z,93.70
2017-09-25T13:14:53.695Z,93.00
2017-09-25T13:17:21.240Z,94.10
2017-09-25T13:19:48.769Z,93.60
2017-09-25T13:22:16.307Z,93.50
2017-09-25T13:24:43.838Z,93.90
2017-09-25T13:27:12.151Z,94.00
2017-09-25T13:29:39.671Z,94.00
2017-09-25T13:32:07.971Z,92.60
2017-09-25T13:34:35.491Z,92.60
2017-09-25T13:37:03.046Z,92.50
2017-09-25T13:39:30.562Z,93.30
2017-09-25T13:41:58.110Z,93.20
2017-09-25T13:44:25.630Z,92.90
2017-09-25T13:46:53.178Z,92.60
2017-09-25T13:49:20.707Z,92.80
2017-09-25T13:51:48.262Z,92.90
2017-09-25T13:54:15.788Z,93.10
2017-09-25T13:56:43.341Z,93.90
2017-09-25T14:04:16.704Z,94.00
2017-09-25T14:06:44.299Z,94.20
2017-09-25T14:09:13.918Z,94.00
2017-09-25T14:11:41.510Z,94.00
2017-09-25T14:14:09.083Z,94.10
2017-09-25T14:16:36.681Z,94.00
2017-09-25T14:19:04.255Z,94.30
2017-09-25T14:21:31.852Z,94.20
2017-09-25T14:24:00.190Z,94.00
2017-09-25T14:26:27.786Z,94.10
2017-09-25T14:28:56.127Z,93.90
2017-09-25T14:31:24.481Z,94.00
2017-09-25T14:33:52.053Z,94.00
2017-09-25T14:36:20.415Z,93.90
2017-09-25T14:38:48.763Z,93.70
2017-09-25T14:41:16.359Z,93.70
2017-09-25T14:43:43.930Z,94.00
2017-09-25T14:46:11.539Z,94.10
2017-09-25T14:48:39.874Z,94.70
2017-09-25T14:51:07.471Z,94.70
2017-09-25T14:53:35.043Z,94.40
2017-09-25T14:56:02.642Z,94.40
2017-09-25T14:58:30.211Z,94.50
2017-09-25T15:00:57.815Z,95.90
2017-09-25T15:03:25.390Z,95.50
2017-09-25T15:05:52.979Z,95.80
2017-09-25T15:08:20.545Z,95.90
2017-09-25T15:10:48.139Z,96.50
2017-09-25T15:13:15.726Z,96.50
2017-09-25T15:15:43.323Z,96.60
2017-09-25T15:18:10.893Z,97.00
2017-09-25T15:20:38.471Z,97.20
2017-09-25T15:23:06.067Z,96.90
2017-09-25T15:25:33.649Z,97.10
2017-09-25T15:28:01.298Z,96.90
2017-09-25T15:30:28.873Z,96.60
2017-09-25T15:32:56.478Z,96.60
2017-09-25T15:35:24.821Z,95.90
2017-09-25T15:37:52.409Z,95.80
2017-09-25T15:40:19.982Z,96.40
2017-09-25T15:42:47.582Z,97.00
2017-09-25T15:45:15.150Z,97.60
2017-09-25T15:47:43.505Z,97.90
2017-09-25T15:50:11.074Z,97.80
2017-09-25T15:52:38.675Z,98.10
2017-09-25T15:55:06.242Z,98.00
2017-09-25T15:57:33.830Z,97.30
2017-09-25T16:00:01.406Z,97.80
2017-09-25T16:02:29.758Z,97.80
2017-09-25T16:04:57.341Z,97.80
2017-09-25T16:07:25.702Z,97.70
2017-09-25T16:09:53.271Z,97.70
2017-09-25T16:12:20.862Z,98.10
2017-09-25T16:14:49.229Z,98.00
2017-09-25T16:17:16.827Z,98.00
2017-09-25T16:19:45.604Z,97.90
2017-09-25T16:22:13.203Z,97.90
2017-09-25T16:24:41.554Z,97.60
2017-09-25T16:27:09.149Z,97.60
2017-09-25T16:29:36.719Z,98.00
2017-09-25T16:32:05.027Z,98.20
2017-09-25T16:34:33.442Z,98.40
2017-09-25T16:37:02.578Z,98.30
2017-09-25T16:39:30.251Z,98.90
2017-09-25T16:41:58.849Z,99.90
2017-09-25T16:44:27.186Z,99.90
2017-09-25T16:46:54.789Z,99.90
2017-09-25T16:49:22.378Z,99.90
2017-09-25T16:51:49.969Z,99.90
2017-09-25T16:54:17.538Z,99.90
2017-09-25T16:56:45.907Z,99.90
2017-09-25T16:59:13.479Z,99.90
2017-09-25T17:01:41.069Z,99.90
2017-09-25T17:04:08.647Z,99.90
2017-09-25T17:06:37.007Z,99.90
2017-09-25T17:09:05.347Z,99.90
2017-09-25T17:11:32.939Z,99.90
2017-09-25T17:14:01.288Z,99.90
2017-09-25T17:16:28.890Z,99.90
2017-09-25T17:18:57.225Z,99.90
2017-09-25T17:21:24.824Z,99.90
2017-09-25T17:23:53.154Z,99.90
2017-09-25T17:26:20.739Z,99.90
2017-09-25T17:28:49.099Z,99.90
2017-09-25T17:31:16.678Z,99.90
2017-09-25T17:33:44.283Z,99.90
2017-09-25T17:36:11.854Z,99.90
2017-09-25T17:38:39.459Z,99.90
2017-09-25T17:41:07.798Z,99.90
2017-09-25T17:43:35.391Z,99.90
2017-09-25T17:46:02.971Z,99.90
2017-09-25T17:48:30.562Z,99.90
2017-09-25T17:50:58.139Z,99.90
2017-09-25T17:53:25.738Z,99.90
2017-09-25T17:55:53.306Z,99.90
2017-09-25T17:58:20.902Z,99.90
2017-09-25T18:00:48.474Z,99.90
2017-09-25T18:03:16.063Z,99.90
2017-09-25T18:05:43.647Z,99.90
2017-09-25T18:08:11.238Z,99.90
2017-09-25T18:10:38.818Z,99.90
2017-09-25T18:13:06.418Z,99.90
2017-09-25T18:15:34.755Z,99.90
2017-09-25T18:18:02.349Z,99.90
2017-09-25T18:20:29.920Z,99.90
2017-09-25T18:22:58.286Z,99.90
2017-09-25T18:25:25.872Z,99.90
2017-09-25T18:27:54.239Z,99.90
2017-09-25T18:30:21.811Z,99.90
2017-09-25T18:32:50.174Z,99.90
2017-09-25T18:35:17.746Z,99.90
2017-09-25T18:37:45.343Z,99.90
2017-09-25T18:40:13.688Z,99.90
2017-09-25T18:42:41.273Z,99.90
2017-09-25T18:45:08.845Z,99.90
2017-09-25T18:47:36.433Z,99.90
2017-09-25T18:50:04.003Z,99.90
2017-09-25T18:52:31.595Z,99.90
2017-09-25T18:54:59.935Z,99.90
2017-09-25T18:57:27.528Z,99.90
2017-09-25T18:59:55.879Z,99.90
2017-09-25T19:02:23.470Z,99.90
2017-09-25T19:04:51.811Z,99.90
2017-09-25T19:07:19.407Z,99.90
2017-09-25T19:09:46.982Z,99.90
2017-09-25T19:12:14.584Z,99.90
2017-09-25T19:14:42.157Z,99.90
2017-09-25T19:17:09.759Z,99.90
2017-09-25T19:19:37.343Z,99.90
2017-09-25T19:22:05.265Z,99.90
2017-09-25T19:24:32.835Z,99.90
2017-09-25T19:27:00.442Z,99.90
2017-09-25T19:29:28.016Z,99.90
2017-09-25T19:31:55.588Z,99.90
2017-09-25T19:34:23.191Z,99.90
2017-09-25T19:36:50.766Z,99.90
2017-09-25T19:39:18.362Z,99.90
2017-09-25T19:41:46.704Z,99.90
2017-09-25T19:44:14.299Z,99.90
2017-09-25T19:46:42.643Z,99.90
2017-09-25T19:49:14.714Z,99.90
2017-09-25T19:51:42.282Z,99.90
2017-09-25T19:54:11.107Z,99.90
2017-09-25T19:56:53.564Z,99.90
2017-09-25T19:59:21.162Z,99.90
2017-09-25T20:01:48.750Z,99.90
2017-09-25T20:04:16.339Z,99.90
2017-09-25T20:06:43.914Z,99.90
2017-09-25T20:09:12.274Z,99.90
2017-09-25T20:11:42.396Z,99.90
2017-09-25T20:14:09.982Z,99.90
2017-09-25T20:16:40.035Z,99.90
2017-09-25T20:19:07.637Z,99.90
2017-09-25T20:21:35.209Z,99.90
2017-09-25T20:24:02.806Z,99.90
2017-09-25T20:26:30.374Z,99.90
2017-09-25T20:28:58.080Z,99.90
2017-09-25T20:31:25.684Z,99.90
2017-09-25T20:33:53.278Z,99.90
2017-09-25T20:36:21.612Z,99.90
2017-09-25T20:38:49.211Z,99.90
2017-09-25T20:41:34.494Z,99.90
2017-09-25T20:44:02.077Z,99.90
2017-09-25T20:46:29.654Z,99.90
2017-09-25T20:48:57.251Z,99.90
2017-09-25T20:51:24.826Z,99.90
2017-09-25T20:53:52.419Z,99.90
2017-09-25T20:56:20.757Z,99.90
2017-09-25T20:58:48.359Z,99.90
2017-09-25T21:01:16.698Z,99.90
2017-09-25T21:03:44.289Z,99.90
2017-09-25T21:06:12.634Z,99.90
2017-09-25T21:08:40.233Z,99.90
2017-09-25T21:11:08.567Z,99.90
2017-09-25T21:13:36.901Z,99.90
2017-09-25T21:16:04.498Z,99.90
2017-09-25T21:18:32.848Z,99.90
2017-09-25T21:21:00.437Z,99.90
2017-09-25T21:23:28.780Z,99.90
2017-09-25T21:26:14.103Z,99.90
2017-09-25T21:28:41.680Z,99.90
2017-09-25T21:31:10.047Z,99.90
2017-09-25T21:33:37.628Z,99.90
2017-09-25T21:36:05.229Z,99.90
2017-09-25T21:38:33.568Z,99.90
2017-09-25T21:41:01.157Z,99.90
2017-09-25T21:43:28.724Z,99.90
2017-09-25T21:45:56.320Z,99.90
2017-09-25T21:48:23.896Z,99.90
2017-09-25T21:50:52.256Z,99.90
2017-09-25T21:53:19.835Z,99.90
2017-09-25T21:55:48.211Z,99.90
2017-09-25T21:58:15.790Z,99.90
2017-09-25T22:00:43.361Z,99.90
2017-09-25T22:03:10.947Z,99.90
2017-09-25T22:05:38.518Z,99.90
2017-09-25T22:08:06.110Z,99.90
2017-09-25T22:10:34.437Z,99.90
2017-09-25T22:13:02.791Z,99.90
2017-09-25T22:15:30.366Z,99.90
2017-09-25T22:17:58.733Z,99.90
2017-09-25T22:20:26.308Z,99.90
2017-09-25T22:22:53.898Z,99.90
2017-09-25T22:25:21.475Z,99.90
2017-09-25T22:27:49.065Z,99.90
2017-09-25T22:30:17.406Z,99.90
2017-09-25T22:32:44.994Z,99.90
2017-09-25T22:35:12.562Z,99.90
2017-09-25T22:37:40.139Z,99.90
2017-09-25T22:40:07.731Z,99.90
2017-09-25T22:42:37.242Z,99.90
2017-09-25T22:45:04.842Z,99.90
2017-09-25T22:47:33.179Z,99.90
2017-09-25T22:50:00.781Z,99.90
2017-09-25T22:52:29.217Z,99.90
2017-09-25T22:54:57.573Z,99.90
2017-09-25T22:57:25.146Z,99.90
2017-09-25T22:59:53.510Z,99.90
2017-09-25T23:02:21.090Z,99.90
2017-09-25T23:04:49.457Z,99.90
2017-09-25T23:07:17.029Z,99.90
2017-09-25T23:09:45.241Z,99.90
2017-09-25T23:12:12.806Z,99.90
2017-09-25T23:14:40.380Z,99.90
2017-09-25T23:17:07.979Z,99.90
2017-09-25T23:19:36.313Z,99.90
2017-09-25T23:22:04.369Z,99.90
2017-09-25T23:24:31.940Z,99.90
2017-09-25T23:26:59.538Z,99.90
2017-09-25T23:29:27.876Z,99.90
2017-09-25T23:31:55.471Z,99.90
2017-09-25T23:34:23.802Z,99.90
2017-09-25T23:36:51.403Z,99.90
2017-09-25T23:39:19.749Z,99.90
2017-09-25T23:41:47.337Z,99.90
2017-09-25T23:44:14.909Z,99.90
2017-09-25T23:46:42.501Z,99.90
2017-09-25T23:49:10.070Z,99.90
2017-09-25T23:51:37.637Z,99.90
2017-09-25T23:54:05.222Z,99.90
2017-09-25T23:56:33.560Z,99.90
2017-09-25T23:59:01.149Z,99.90
